Accueil
METAR-TAF:

METAR-TAF

Aéroports :

Roben-Hood Airport

Big Rapids, Michigan, États-Unis

latitude: 43-43-21N, longitude: 085-30-15W, altitude: 302 m

Observation

Le bulletin a été fait il y a 20 minutes, à 08:35 UTC
Vent calme
Température 13°C
Humidité 100%
Pression 1008 hPa
Visibilité: 16.1 km
Nuages épars à une hauteur de 700 ft
Nuages fragmentés à une hauteur de 2700 ft
Ciel couvert à une hauteur de 7000 ft

METAR: KRQB 210835Z AUTO 00000KT 10SM SCT007 BKN027 OVC070 13/13 A2978 RMK AO2 T01300127

Heure: 04:55 (08:55 UTC)


TAF: absent

Observations et prévisions météorologiques de plus de 4000 aéroports (messages METAR et TAF).

Les stations disponibles sont représentées par des disques jaunes et rouges sur la carte.

Passer la souris dessus pour voir le nom de la station.

Cliquer dessus pour voir les observations et prévisions météorologiques.

Pour changer de carte: cliquez sur les boutons verts avec une croix noire pour zoomer, sur le bouton vert avec un tiret pour effectuer un zoom arrière, ou sur les flèches vertes pour les cartes adjacentes.


METAR-TAF: